Time,TemperatureF,DewpointF,PressureIn,WindDirection,WindDirectionDegrees,WindSpeedMPH,WindSpeedGustMPH,Humidity,HourlyPrecipIn,Conditions,Clouds,dailyrainin,SolarRadiationWatts/m^2,SoftwareType,DateUTC
2013-10-29 00:00:00,33.9,25.8,29.61,ESE,122,0.0,0.0,72,0.00,,,0.00,0,Wunderground v.1.15,2013-10-29 04:00:00,
2013-10-29 00:05:00,33.7,26.0,29.61,ESE,122,0.0,0.0,73,0.00,,,0.00,0,Wunderground v.1.15,2013-10-29 04:05:00,
2013-10-29 00:10:00,33.5,26.1,29.62,ESE,122,0.0,0.0,74,0.00,,,0.00,0,Wunderground v.1.15,2013-10-29 04:10:00,
2013-10-29 00:15:00,33.3,26.2,29.62,ESE,122,0.0,0.0,75,0.00,,,0.00,0,Wunderground v.1.15,2013-10-29 04:15:00,
2013-10-29 00:20:00,33.1,26.0,29.62,ESE,122,0.0,0.0,75,0.00,,,0.00,0,Wunderground v.1.15,2013-10-29 04:20:00,
2013-10-29 00:25:00,33.0,26.3,29.62,ESE,122,0.0,0.0,76,0.00,,,0.00,0,Wunderground v.1.15,2013-10-29 04:25:00,
2013-10-29 00:35:00,32.8,26.1,29.62,ESE,122,0.0,0.0,76,0.00,,,0.00,0,Wunderground v.1.15,2013-10-29 04:35:00,
2013-10-29 00:45:00,32.5,26.1,29.62,ESE,122,0.0,0.0,77,0.00,,,0.00,0,Wunderground v.1.15,2013-10-29 04:45:00,
2013-10-29 00:50:00,32.3,25.9,29.62,ESE,122,0.0,0.0,77,0.00,,,0.00,0,Wunderground v.1.15,2013-10-29 04:50:00,
2013-10-29 01:00:00,32.0,25.9,29.62,ESE,122,0.0,0.0,78,0.00,,,0.00,0,Wunderground v.1.15,2013-10-29 05:00:00,
2013-10-29 01:10:00,31.7,25.6,29.63,ESE,122,0.0,0.0,78,0.00,,,0.00,0,Wunderground v.1.15,2013-10-29 05:10:00,
2013-10-29 01:15:00,31.6,25.5,29.63,ESE,122,0.0,0.0,78,0.00,,,0.00,0,Wunderground v.1.15,2013-10-29 05:15:00,
2013-10-29 01:25:00,31.3,24.9,29.63,ESE,122,0.0,0.0,77,0.00,,,0.00,0,Wunderground v.1.15,2013-10-29 05:25:00,
2013-10-29 01:35:00,31.1,24.1,29.63,ESE,122,0.0,0.0,75,0.00,,,0.00,0,Wunderground v.1.15,2013-10-29 05:35:00,
2013-10-29 01:45:00,30.9,24.2,29.63,ESE,122,0.0,0.0,76,0.00,,,0.00,0,Wunderground v.1.15,2013-10-29 05:45:00,
2013-10-29 01:50:00,30.7,24.3,29.63,ESE,122,0.0,0.0,77,0.00,,,0.00,0,Wunderground v.1.15,2013-10-29 05:50:00,
2013-10-29 02:00:00,30.5,23.8,29.63,ESE,122,0.0,0.0,76,0.00,,,0.00,0,Wunderground v.1.15,2013-10-29 06:00:00,
2013-10-29 02:10:00,30.4,23.7,29.63,ESE,122,0.0,0.0,76,0.00,,,0.00,0,Wunderground v.1.15,2013-10-29 06:10:00,
2013-10-29 02:20:00,30.2,23.9,29.63,ESE,122,0.0,0.0,77,0.00,,,0.00,0,Wunderground v.1.15,2013-10-29 06:20:00,
2013-10-29 02:30:00,29.8,23.8,29.63,ESE,123,0.0,0.0,78,0.00,,,0.00,0,Wunderground v.1.15,2013-10-29 06:30:00,
2013-10-29 02:40:00,29.4,24.3,29.63,ESE,122,0.0,0.0,81,0.00,,,0.00,0,Wunderground v.1.15,2013-10-29 06:40:00,
2013-10-29 02:45:00,29.2,24.4,29.63,ESE,123,0.0,0.0,82,0.00,,,0.00,0,Wunderground v.1.15,2013-10-29 06:45:00,
2013-10-29 02:55:00,29.0,24.5,29.63,ESE,123,0.0,0.0,83,0.00,,,0.00,0,Wunderground v.1.15,2013-10-29 06:55:00,
2013-10-29 03:00:00,28.8,24.3,29.63,ESE,123,0.0,0.0,83,0.00,,,0.00,0,Wunderground v.1.15,2013-10-29 07:00:00,
2013-10-29 03:10:00,28.7,24.2,29.64,ESE,123,0.0,0.0,83,0.00,,,0.00,0,Wunderground v.1.15,2013-10-29 07:10:00,
2013-10-29 03:15:00,28.7,24.2,29.64,ESE,122,0.0,2.0,83,0.00,,,0.00,0,Wunderground v.1.15,2013-10-29 07:15:00,
2013-10-29 03:25:00,29.0,24.5,29.64,ESE,121,1.0,1.0,83,0.00,,,0.00,0,Wunderground v.1.15,2013-10-29 07:25:00,
2013-10-29 03:35:00,29.2,24.7,29.64,ESE,121,0.0,0.0,83,0.00,,,0.00,0,Wunderground v.1.15,2013-10-29 07:35:00,
2013-10-29 03:45:00,29.3,24.8,29.64,ESE,121,0.0,0.0,83,0.00,,,0.00,0,Wunderground v.1.15,2013-10-29 07:45:00,
2013-10-29 03:55:00,29.5,25.3,29.64,ESE,121,0.0,0.0,84,0.00,,,0.00,0,Wunderground v.1.15,2013-10-29 07:55:00,
2013-10-29 04:00:00,29.6,25.4,29.64,ESE,121,0.0,0.0,84,0.00,,,0.00,0,Wunderground v.1.15,2013-10-29 08:00:00,
2013-10-29 04:10:00,29.6,24.8,29.64,ESE,121,0.0,0.0,82,0.00,,,0.00,0,Wunderground v.1.15,2013-10-29 08:10:00,
2013-10-29 04:15:00,29.5,24.7,29.64,ESE,121,0.0,0.0,82,0.00,,,0.00,0,Wunderground v.1.15,2013-10-29 08:15:00,
2013-10-29 04:25:00,29.6,25.4,29.65,ESE,121,0.0,0.0,84,0.00,,,0.00,0,Wunderground v.1.15,2013-10-29 08:25:00,
2013-10-29 04:30:00,29.6,25.4,29.65,ESE,121,0.0,0.0,84,0.00,,,0.00,0,Wunderground v.1.15,2013-10-29 08:30:00,
2013-10-29 04:40:00,29.6,25.6,29.65,ESE,121,0.0,0.0,85,0.00,,,0.00,0,Wunderground v.1.15,2013-10-29 08:40:00,
2013-10-29 04:45:00,29.6,25.6,29.65,ESE,121,0.0,0.0,85,0.00,,,0.00,0,Wunderground v.1.15,2013-10-29 08:45:00,
2013-10-29 04:55:00,29.6,25.6,29.65,ESE,121,0.0,0.0,85,0.00,,,0.00,0,Wunderground v.1.15,2013-10-29 08:55:00,
2013-10-29 05:05:00,29.5,25.5,29.65,ESE,122,0.0,0.0,85,0.00,,,0.00,0,Wunderground v.1.15,2013-10-29 09:05:00,
2013-10-29 05:10:00,29.5,25.5,29.66,ESE,122,0.0,0.0,85,0.00,,,0.00,0,Wunderground v.1.15,2013-10-29 09:10:00,
2013-10-29 05:20:00,29.5,25.0,29.66,ESE,122,0.0,0.0,83,0.00,,,0.00,0,Wunderground v.1.15,2013-10-29 09:20:00,
2013-10-29 05:25:00,29.5,24.7,29.66,ESE,121,0.0,0.0,82,0.00,,,0.00,0,Wunderground v.1.15,2013-10-29 09:25:00,
2013-10-29 05:35:00,29.3,24.2,29.66,ESE,121,0.0,0.0,81,0.00,,,0.00,0,Wunderground v.1.15,2013-10-29 09:35:00,
2013-10-29 05:45:00,28.9,23.5,29.67,ESE,121,0.0,0.0,80,0.00,,,0.00,0,Wunderground v.1.15,2013-10-29 09:45:00,
2013-10-29 05:50:00,28.8,23.4,29.67,ESE,121,0.0,0.0,80,0.00,,,0.00,0,Wunderground v.1.15,2013-10-29 09:50:00,
2013-10-29 06:00:00,28.5,23.1,29.67,ESE,121,0.0,0.0,80,0.00,,,0.00,0,Wunderground v.1.15,2013-10-29 10:00:00,
2013-10-29 06:05:00,28.5,23.1,29.67,ESE,121,0.0,0.0,80,0.00,,,0.00,0,Wunderground v.1.15,2013-10-29 10:05:00,
2013-10-29 06:15:00,28.6,23.8,29.67,ESE,121,0.0,0.0,82,0.00,,,0.00,0,Wunderground v.1.15,2013-10-29 10:15:00,
2013-10-29 06:25:00,28.8,23.7,29.66,ESE,121,0.0,0.0,81,0.00,,,0.00,0,Wunderground v.1.15,2013-10-29 10:25:00,
2013-10-29 06:30:00,28.8,24.0,29.67,ESE,121,0.0,0.0,82,0.00,,,0.00,0,Wunderground v.1.15,2013-10-29 10:30:00,
2013-10-29 06:40:00,29.0,23.9,29.67,ESE,121,0.0,0.0,81,0.00,,,0.00,0,Wunderground v.1.15,2013-10-29 10:40:00,
2013-10-29 06:50:00,29.1,24.6,29.67,ESE,121,0.0,0.0,83,0.00,,,0.00,0,Wunderground v.1.15,2013-10-29 10:50:00,
2013-10-29 06:55:00,29.2,24.7,29.67,ESE,121,0.0,0.0,83,0.00,,,0.00,0,Wunderground v.1.15,2013-10-29 10:55:00,
2013-10-29 07:05:00,29.2,25.0,29.67,ESE,121,0.0,0.0,84,0.00,,,0.00,0,Wunderground v.1.15,2013-10-29 11:05:00,
2013-10-29 07:15:00,29.2,24.7,29.67,ESE,121,0.0,0.0,83,0.00,,,0.00,0,Wunderground v.1.15,2013-10-29 11:15:00,
2013-10-29 07:25:00,29.2,25.0,29.67,ESE,121,0.0,0.0,84,0.00,,,0.00,0,Wunderground v.1.15,2013-10-29 11:25:00,
2013-10-29 07:30:00,29.1,24.9,29.68,ESE,121,0.0,0.0,84,0.00,,,0.00,5,Wunderground v.1.15,2013-10-29 11:30:00,
2013-10-29 07:40:00,28.8,24.9,29.68,ESE,121,0.0,0.0,85,0.00,,,0.00,11,Wunderground v.1.15,2013-10-29 11:40:00,
2013-10-29 07:45:00,28.7,24.5,29.68,ESE,121,0.0,0.0,84,0.00,,,0.00,14,Wunderground v.1.15,2013-10-29 11:45:00,
2013-10-29 07:55:00,28.7,24.2,29.68,ESE,122,0.0,0.0,83,0.00,,,0.00,19,Wunderground v.1.15,2013-10-29 11:55:00,
2013-10-29 08:05:00,28.8,23.7,29.69,ESE,122,0.0,0.0,81,0.00,,,0.00,25,Wunderground v.1.15,2013-10-29 12:05:00,
2013-10-29 08:10:00,28.9,23.5,29.69,ESE,121,0.0,0.0,80,0.00,,,0.00,21,Wunderground v.1.15,2013-10-29 12:10:00,
2013-10-29 08:20:00,28.9,23.5,29.69,ESE,121,0.0,0.0,80,0.00,,,0.00,25,Wunderground v.1.15,2013-10-29 12:20:00,
2013-10-29 08:30:00,28.9,23.2,29.69,ESE,121,0.0,0.0,79,0.00,,,0.00,51,Wunderground v.1.15,2013-10-29 12:30:00,
2013-10-29 08:35:00,29.1,23.1,29.70,ESE,121,0.0,0.0,78,0.00,,,0.00,51,Wunderground v.1.15,2013-10-29 12:35:00,
2013-10-29 08:45:00,29.4,24.0,29.70,ESE,121,0.0,1.0,80,0.00,,,0.00,37,Wunderground v.1.15,2013-10-29 12:45:00,
2013-10-29 08:55:00,29.6,23.9,29.71,ESE,121,0.0,0.0,79,0.00,,,0.00,54,Wunderground v.1.15,2013-10-29 12:55:00,
2013-10-29 09:00:00,29.8,23.2,29.71,ESE,121,0.0,0.0,76,0.00,,,0.00,42,Wunderground v.1.15,2013-10-29 13:00:00,
2013-10-29 09:10:00,30.6,23.6,29.71,ESE,121,1.0,1.0,75,0.00,,,0.00,130,Wunderground v.1.15,2013-10-29 13:10:00,
2013-10-29 09:20:00,30.9,23.9,29.70,ESE,121,1.0,1.0,75,0.00,,,0.00,58,Wunderground v.1.15,2013-10-29 13:20:00,
2013-10-29 09:30:00,31.1,24.1,29.70,ESE,121,1.0,1.0,75,0.00,,,0.00,47,Wunderground v.1.15,2013-10-29 13:30:00,
2013-10-29 09:35:00,31.4,24.1,29.70,ESE,111,1.0,1.0,74,0.00,,,0.00,387,Wunderground v.1.15,2013-10-29 13:35:00,
2013-10-29 09:45:00,33.1,25.4,29.70,East,87,2.0,2.0,73,0.00,,,0.00,427,Wunderground v.1.15,2013-10-29 13:45:00,
2013-10-29 09:50:00,33.9,25.1,29.70,East,86,2.0,2.0,70,0.00,,,0.00,443,Wunderground v.1.15,2013-10-29 13:50:00,
2013-10-29 10:00:00,35.3,24.3,29.69,East,86,1.0,1.0,64,0.00,,,0.00,468,Wunderground v.1.15,2013-10-29 14:00:00,
2013-10-29 10:10:00,36.3,24.9,29.70,East,82,2.0,2.0,63,0.00,,,0.00,490,Wunderground v.1.15,2013-10-29 14:10:00,
2013-10-29 10:15:00,37.0,25.2,29.70,NNE,26,2.0,2.0,62,0.00,,,0.00,503,Wunderground v.1.15,2013-10-29 14:15:00,
2013-10-29 10:25:00,38.2,25.1,29.69,ENE,61,2.0,3.0,59,0.00,,,0.00,520,Wunderground v.1.15,2013-10-29 14:25:00,
2013-10-29 10:35:00,38.5,25.0,29.69,ENE,64,1.0,2.0,58,0.00,,,0.00,541,Wunderground v.1.15,2013-10-29 14:35:00,
2013-10-29 10:40:00,38.7,24.3,29.69,ENE,68,1.0,2.0,56,0.00,,,0.00,548,Wunderground v.1.15,2013-10-29 14:40:00,
2013-10-29 10:50:00,39.3,24.0,29.68,ENE,63,2.0,2.0,54,0.00,,,0.00,563,Wunderground v.1.15,2013-10-29 14:50:00,
2013-10-29 10:55:00,39.5,24.2,29.68,ENE,65,2.0,3.0,54,0.00,,,0.00,570,Wunderground v.1.15,2013-10-29 14:55:00,
2013-10-29 11:05:00,40.4,23.7,29.68,ENE,71,2.0,2.0,51,0.00,,,0.00,582,Wunderground v.1.15,2013-10-29 15:05:00,
2013-10-29 11:10:00,40.5,23.8,29.68,ENE,68,3.0,4.0,51,0.00,,,0.00,587,Wunderground v.1.15,2013-10-29 15:10:00,
2013-10-29 11:20:00,40.9,23.7,29.68,ENE,76,2.0,2.0,50,0.00,,,0.00,598,Wunderground v.1.15,2013-10-29 15:20:00,
2013-10-29 11:30:00,41.5,24.2,29.68,ENE,75,2.0,3.0,50,0.00,,,0.00,610,Wunderground v.1.15,2013-10-29 15:30:00,
2013-10-29 11:35:00,42.2,26.3,29.68,SSW,211,2.0,3.0,53,0.00,,,0.00,615,Wunderground v.1.15,2013-10-29 15:35:00,
2013-10-29 11:45:00,43.8,26.3,29.68,WNW,291,1.0,2.0,50,0.00,,,0.00,628,Wunderground v.1.15,2013-10-29 15:45:00,
2013-10-29 11:55:00,44.4,24.9,29.67,NE,55,2.0,4.0,46,0.00,,,0.00,638,Wunderground v.1.15,2013-10-29 15:55:00,
2013-10-29 12:05:00,43.7,24.2,29.67,ENE,59,3.0,3.0,46,0.00,,,0.00,645,Wunderground v.1.15,2013-10-29 16:05:00,
2013-10-29 12:15:00,44.0,24.5,29.67,ENE,71,2.0,5.0,46,0.00,,,0.00,650,Wunderground v.1.15,2013-10-29 16:15:00,
2013-10-29 12:25:00,44.7,24.6,29.66,ENE,59,3.0,3.0,45,0.00,,,0.00,661,Wunderground v.1.15,2013-10-29 16:25:00,
2013-10-29 12:35:00,45.4,24.2,29.66,West,261,2.0,2.0,43,0.00,,,0.00,668,Wunderground v.1.15,2013-10-29 16:35:00,
2013-10-29 12:40:00,46.3,25.0,29.66,ENE,68,2.0,2.0,43,0.00,,,0.00,687,Wunderground v.1.15,2013-10-29 16:40:00,
2013-10-29 12:50:00,46.6,24.7,29.65,ENE,72,3.0,4.0,42,0.00,,,0.00,684,Wunderground v.1.15,2013-10-29 16:50:00,
2013-10-29 13:00:00,47.2,25.3,29.65,NE,53,3.0,3.0,42,0.00,,,0.00,673,Wunderground v.1.15,2013-10-29 17:00:00,
2013-10-29 13:05:00,47.3,24.8,29.65,ENE,74,3.0,3.0,41,0.00,,,0.00,686,Wunderground v.1.15,2013-10-29 17:05:00,
2013-10-29 13:15:00,45.9,24.1,29.65,ENE,67,4.0,4.0,42,0.00,,,0.00,352,Wunderground v.1.15,2013-10-29 17:15:00,
2013-10-29 13:25:00,46.0,24.7,29.64,North,350,1.0,2.0,43,0.00,,,0.00,302,Wunderground v.1.15,2013-10-29 17:25:00,
2013-10-29 13:30:00,46.6,24.7,29.64,North,355,1.0,1.0,42,0.00,,,0.00,388,Wunderground v.1.15,2013-10-29 17:30:00,
2013-10-29 13:40:00,48.6,25.9,29.64,NE,42,1.0,4.0,41,0.00,,,0.00,694,Wunderground v.1.15,2013-10-29 17:40:00,
2013-10-29 13:50:00,49.7,26.9,29.64,SSW,205,3.0,3.0,41,0.00,,,0.00,327,Wunderground v.1.15,2013-10-29 17:50:00,
2013-10-29 14:00:00,48.2,25.0,29.63,East,83,2.0,2.0,40,0.00,,,0.00,297,Wunderground v.1.15,2013-10-29 18:00:00,
2013-10-29 14:05:00,48.5,25.2,29.63,ENE,71,2.0,4.0,40,0.00,,,0.00,287,Wunderground v.1.15,2013-10-29 18:05:00,
2013-10-29 14:15:00,49.1,25.2,29.62,ENE,64,2.0,3.0,39,0.00,,,0.00,367,Wunderground v.1.15,2013-10-29 18:15:00,
2013-10-29 14:20:00,49.4,24.8,29.62,East,79,2.0,2.0,38,0.00,,,0.00,260,Wunderground v.1.15,2013-10-29 18:20:00,
2013-10-29 14:30:00,49.8,24.5,29.62,NE,44,2.0,2.0,37,0.00,,,0.00,570,Wunderground v.1.15,2013-10-29 18:30:00,
2013-10-29 14:40:00,50.5,25.2,29.62,ENE,61,3.0,3.0,37,0.00,,,0.00,520,Wunderground v.1.15,2013-10-29 18:40:00,
2013-10-29 14:50:00,50.4,24.4,29.62,NE,48,3.0,3.0,36,0.00,,,0.00,455,Wunderground v.1.15,2013-10-29 18:50:00,
2013-10-29 15:00:00,48.7,23.6,29.62,NE,46,3.0,4.0,37,0.00,,,0.00,144,Wunderground v.1.15,2013-10-29 19:00:00,
2013-10-29 15:10:00,47.6,24.4,29.62,NE,49,2.0,2.0,40,0.00,,,0.00,485,Wunderground v.1.15,2013-10-29 19:10:00,
2013-10-29 15:20:00,48.8,23.0,29.62,ENE,58,3.0,3.0,36,0.00,,,0.00,504,Wunderground v.1.15,2013-10-29 19:20:00,
2013-10-29 15:25:00,48.5,23.4,29.62,ENE,64,3.0,6.0,37,0.00,,,0.00,260,Wunderground v.1.15,2013-10-29 19:25:00,
2013-10-29 15:35:00,48.6,21.5,29.63,ENE,74,4.0,10.0,34,0.00,,,0.00,415,Wunderground v.1.15,2013-10-29 19:35:00,
2013-10-29 15:45:00,48.1,21.0,29.63,ENE,76,6.0,7.0,34,0.00,,,0.00,383,Wunderground v.1.15,2013-10-29 19:45:00,
2013-10-29 15:55:00,48.1,21.0,29.63,ENE,57,5.0,5.0,34,0.00,,,0.00,359,Wunderground v.1.15,2013-10-29 19:55:00,
2013-10-29 16:00:00,48.5,21.4,29.63,WNW,296,3.0,3.0,34,0.00,,,0.00,343,Wunderground v.1.15,2013-10-29 20:00:00,
2013-10-29 16:10:00,48.9,21.0,29.63,ENE,74,3.0,5.0,33,0.00,,,0.00,315,Wunderground v.1.15,2013-10-29 20:10:00,
2013-10-29 16:15:00,49.1,21.2,29.63,NE,55,3.0,5.0,33,0.00,,,0.00,297,Wunderground v.1.15,2013-10-29 20:15:00,
2013-10-29 16:25:00,49.0,21.8,29.63,ENE,75,3.0,6.0,34,0.00,,,0.00,260,Wunderground v.1.15,2013-10-29 20:25:00,
2013-10-29 16:30:00,48.7,22.2,29.63,ENE,69,2.0,2.0,35,0.00,,,0.00,225,Wunderground v.1.15,2013-10-29 20:30:00,
2013-10-29 16:40:00,47.9,22.2,29.63,East,79,3.0,6.0,36,0.00,,,0.00,163,Wunderground v.1.15,2013-10-29 20:40:00,
2013-10-29 16:45:00,47.5,21.2,29.63,ENE,74,4.0,6.0,35,0.00,,,0.00,134,Wunderground v.1.15,2013-10-29 20:45:00,
2013-10-29 16:55:00,46.3,20.8,29.63,ENE,76,4.0,4.0,36,0.00,,,0.00,51,Wunderground v.1.15,2013-10-29 20:55:00,
2013-10-29 17:05:00,46.1,19.2,29.63,ENE,67,3.0,4.0,34,0.00,,,0.00,40,Wunderground v.1.15,2013-10-29 21:05:00,
2013-10-29 17:15:00,45.7,19.6,29.63,ENE,72,2.0,6.0,35,0.00,,,0.00,33,Wunderground v.1.15,2013-10-29 21:15:00,
2013-10-29 17:20:00,45.3,19.2,29.63,East,80,3.0,3.0,35,0.00,,,0.00,30,Wunderground v.1.15,2013-10-29 21:20:00,
2013-10-29 17:30:00,44.6,18.6,29.63,ENE,71,2.0,3.0,35,0.00,,,0.00,19,Wunderground v.1.15,2013-10-29 21:30:00,
2013-10-29 17:40:00,43.8,19.2,29.63,ENE,78,2.0,2.0,37,0.00,,,0.00,9,Wunderground v.1.15,2013-10-29 21:40:00,
2013-10-29 17:45:00,43.5,18.9,29.63,ENE,78,1.0,2.0,37,0.00,,,0.00,5,Wunderground v.1.15,2013-10-29 21:45:00,
2013-10-29 17:55:00,42.7,18.2,29.63,East,79,0.0,2.0,37,0.00,,,0.00,0,Wunderground v.1.15,2013-10-29 21:55:00,
2013-10-29 18:05:00,41.9,18.1,29.63,East,79,0.0,0.0,38,0.00,,,0.00,0,Wunderground v.1.15,2013-10-29 22:05:00,
2013-10-29 18:10:00,41.5,18.4,29.63,East,79,0.0,0.0,39,0.00,,,0.00,0,Wunderground v.1.15,2013-10-29 22:10:00,
2013-10-29 18:20:00,40.9,18.4,29.64,East,79,0.0,0.0,40,0.00,,,0.00,0,Wunderground v.1.15,2013-10-29 22:20:00,
2013-10-29 18:25:00,40.7,18.2,29.64,East,79,0.0,0.0,40,0.00,,,0.00,0,Wunderground v.1.15,2013-10-29 22:25:00,
2013-10-29 18:35:00,40.2,18.3,29.64,East,79,0.0,0.0,41,0.00,,,0.00,0,Wunderground v.1.15,2013-10-29 22:35:00,
2013-10-29 18:40:00,40.2,18.3,29.64,East,79,0.0,0.0,41,0.00,,,0.00,0,Wunderground v.1.15,2013-10-29 22:40:00,
2013-10-29 18:50:00,40.3,18.4,29.64,East,79,0.0,0.0,41,0.00,,,0.00,0,Wunderground v.1.15,2013-10-29 22:50:00,
2013-10-29 19:00:00,40.0,18.7,29.65,East,79,0.0,0.0,42,0.00,,,0.00,0,Wunderground v.1.15,2013-10-29 23:00:00,
2013-10-29 19:10:00,39.2,18.5,29.65,East,79,0.0,0.0,43,0.00,,,0.00,0,Wunderground v.1.15,2013-10-29 23:10:00,
2013-10-29 19:15:00,38.7,18.6,29.65,East,79,0.0,0.0,44,0.00,,,0.00,0,Wunderground v.1.15,2013-10-29 23:15:00,
2013-10-29 19:25:00,38.3,19.3,29.66,East,79,0.0,0.0,46,0.00,,,0.00,0,Wunderground v.1.15,2013-10-29 23:25:00,
2013-10-29 19:30:00,38.0,19.0,29.66,East,79,0.0,0.0,46,0.00,,,0.00,0,Wunderground v.1.15,2013-10-29 23:30:00,
2013-10-29 19:40:00,37.6,20.1,29.66,East,79,0.0,0.0,49,0.00,,,0.00,0,Wunderground v.1.15,2013-10-29 23:40:00,
2013-10-29 19:45:00,37.3,19.4,29.66,East,79,0.0,0.0,48,0.00,,,0.00,0,Wunderground v.1.15,2013-10-29 23:45:00,
2013-10-29 19:55:00,36.8,19.4,29.66,East,79,0.0,0.0,49,0.00,,,0.00,0,Wunderground v.1.15,2013-10-29 23:55:00,
2013-10-29 20:05:00,36.4,19.0,29.66,East,80,0.0,0.0,49,0.00,,,0.00,0,Wunderground v.1.15,2013-10-30 00:05:00,
2013-10-29 20:10:00,36.2,19.3,29.66,East,80,0.0,0.0,50,0.00,,,0.00,0,Wunderground v.1.15,2013-10-30 00:10:00,
2013-10-29 20:20:00,35.8,19.4,29.65,East,79,0.0,0.0,51,0.00,,,0.00,0,Wunderground v.1.15,2013-10-30 00:20:00,
2013-10-29 20:30:00,35.5,19.6,29.65,East,80,0.0,0.0,52,0.00,,,0.00,0,Wunderground v.1.15,2013-10-30 00:30:00,
2013-10-29 20:40:00,35.1,20.1,29.64,East,79,0.0,0.0,54,0.00,,,0.00,0,Wunderground v.1.15,2013-10-30 00:40:00,
2013-10-29 20:50:00,34.4,19.9,29.64,East,80,0.0,0.0,55,0.00,,,0.00,0,Wunderground v.1.15,2013-10-30 00:50:00,
2013-10-29 20:55:00,34.2,20.1,29.64,East,79,0.0,0.0,56,0.00,,,0.00,0,Wunderground v.1.15,2013-10-30 00:55:00,
2013-10-29 21:00:00,34.0,19.9,29.65,East,79,0.0,0.0,56,0.00,,,0.00,0,Wunderground v.1.15,2013-10-30 01:00:00,
2013-10-29 21:05:00,33.9,20.3,29.65,East,79,0.0,0.0,57,0.00,,,0.00,0,Wunderground v.1.15,2013-10-30 01:05:00,
2013-10-29 21:15:00,33.5,20.3,29.64,East,79,0.0,0.0,58,0.00,,,0.00,0,Wunderground v.1.15,2013-10-30 01:15:00,
2013-10-29 21:20:00,33.3,20.1,29.65,East,79,0.0,0.0,58,0.00,,,0.00,0,Wunderground v.1.15,2013-10-30 01:20:00,
2013-10-29 21:30:00,33.1,20.3,29.65,East,80,0.0,0.0,59,0.00,,,0.00,0,Wunderground v.1.15,2013-10-30 01:30:00,
2013-10-29 21:35:00,32.9,20.1,29.65,East,79,0.0,0.0,59,0.00,,,0.00,0,Wunderground v.1.15,2013-10-30 01:35:00,
2013-10-29 21:45:00,32.6,20.6,29.65,East,79,0.0,1.0,61,0.00,,,0.00,0,Wunderground v.1.15,2013-10-30 01:45:00,
2013-10-29 21:55:00,32.5,20.5,29.65,East,80,0.0,0.0,61,0.00,,,0.00,0,Wunderground v.1.15,2013-10-30 01:55:00,
2013-10-29 22:00:00,32.4,20.4,29.65,East,80,0.0,0.0,61,0.00,,,0.00,0,Wunderground v.1.15,2013-10-30 02:00:00,
2013-10-29 22:05:00,32.4,20.4,29.64,East,79,0.0,0.0,61,0.00,,,0.00,0,Wunderground v.1.15,2013-10-30 02:05:00,
2013-10-29 22:15:00,32.2,20.6,29.64,East,79,0.0,0.0,62,0.00,,,0.00,0,Wunderground v.1.15,2013-10-30 02:15:00,
2013-10-29 22:25:00,31.8,20.6,29.64,East,79,0.0,0.0,63,0.00,,,0.00,0,Wunderground v.1.15,2013-10-30 02:25:00,
2013-10-29 22:35:00,31.4,21.0,29.64,East,79,0.0,0.0,65,0.00,,,0.00,0,Wunderground v.1.15,2013-10-30 02:35:00,
2013-10-29 22:45:00,31.0,21.0,29.64,East,79,0.0,0.0,66,0.00,,,0.00,0,Wunderground v.1.15,2013-10-30 02:45:00,
2013-10-29 22:55:00,30.9,20.9,29.64,East,79,0.0,0.0,66,0.00,,,0.00,0,Wunderground v.1.15,2013-10-30 02:55:00,
2013-10-29 23:05:00,30.8,21.1,29.64,East,79,0.0,0.0,67,0.00,,,0.00,0,Wunderground v.1.15,2013-10-30 03:05:00,
2013-10-29 23:10:00,30.8,21.1,29.64,East,80,0.0,0.0,67,0.00,,,0.00,0,Wunderground v.1.15,2013-10-30 03:10:00,
2013-10-29 23:20:00,30.7,21.7,29.64,East,79,0.0,0.0,69,0.00,,,0.00,0,Wunderground v.1.15,2013-10-30 03:20:00,
2013-10-29 23:30:00,30.7,22.4,29.63,East,79,0.0,0.0,71,0.00,,,0.00,0,Wunderground v.1.15,2013-10-30 03:30:00,
2013-10-29 23:35:00,30.6,22.0,29.63,East,79,0.0,0.0,70,0.00,,,0.00,0,Wunderground v.1.15,2013-10-30 03:35:00,
2013-10-29 23:45:00,30.3,22.0,29.63,East,79,0.0,0.0,71,0.00,,,0.00,0,Wunderground v.1.15,2013-10-30 03:45:00,
2013-10-29 23:55:00,30.2,21.6,29.62,East,79,0.0,0.0,70,0.00,,,0.00,0,Wunderground v.1.15,2013-10-30 03:55:00,